createdAt,value
2023-04-05T00:01:53.574Z,13.09
2023-04-05T00:04:24.055Z,13.04
2023-04-05T00:06:52.960Z,13.02
2023-04-05T00:09:23.246Z,12.95
2023-04-05T00:11:52.854Z,13.02
2023-04-05T00:14:19.622Z,12.91
2023-04-05T00:16:56.879Z,12.83
2023-04-05T00:19:26.122Z,12.85
2023-04-05T00:21:55.054Z,12.73
2023-04-05T00:24:44.793Z,12.77
2023-04-05T00:27:17.839Z,12.66
2023-04-05T00:29:57.421Z,12.49
2023-04-05T00:32:28.464Z,12.46
2023-04-05T00:34:55.415Z,12.38
2023-04-05T00:37:27.036Z,12.36
2023-04-05T00:39:57.582Z,12.31
2023-04-05T00:42:24.398Z,12.33
2023-04-05T00:44:54.284Z,12.30
2023-04-05T00:47:21.384Z,12.39
2023-04-05T00:49:52.443Z,12.45
2023-04-05T00:52:23.466Z,12.37
2023-04-05T00:54:52.579Z,12.41
2023-04-05T00:57:20.133Z,12.42
2023-04-05T00:59:50.196Z,12.39
2023-04-05T01:02:34.531Z,12.34
2023-04-05T01:05:16.878Z,12.32
2023-04-05T01:08:00.146Z,12.27
2023-04-05T01:10:35.562Z,12.16
2023-04-05T01:13:02.785Z,12.08
2023-04-05T01:15:30.860Z,12.04
2023-04-05T01:17:57.749Z,11.95
2023-04-05T01:20:38.292Z,12.07
2023-04-05T01:23:44.123Z,12.07
2023-04-05T01:26:59.356Z,12.12
2023-04-05T01:29:38.830Z,12.05
2023-04-05T01:32:05.541Z,11.92
2023-04-05T01:34:58.312Z,11.93
2023-04-05T01:37:34.703Z,11.98
2023-04-05T01:40:06.208Z,11.93
2023-04-05T01:42:32.989Z,12.02
2023-04-05T01:45:03.183Z,11.94
2023-04-05T01:47:37.277Z,11.94
2023-04-05T01:50:10.465Z,11.97
2023-04-05T01:52:40.617Z,11.91
2023-04-05T01:55:07.618Z,11.99
2023-04-05T01:57:45.010Z,11.96
2023-04-05T02:00:21.701Z,11.72
2023-04-05T02:02:48.695Z,11.66
2023-04-05T02:05:16.040Z,11.63
2023-04-05T02:07:42.818Z,11.63
2023-04-05T02:10:13.441Z,11.56
2023-04-05T02:12:40.253Z,11.65
2023-04-05T02:15:12.729Z,11.59
2023-04-05T02:17:46.079Z,11.63
2023-04-05T02:20:14.768Z,11.63
2023-04-05T02:22:48.249Z,11.57
2023-04-05T02:25:15.520Z,11.52
2023-04-05T02:27:42.276Z,11.47
2023-04-05T02:30:10.497Z,11.57
2023-04-05T02:32:37.323Z,11.66
2023-04-05T02:35:04.395Z,11.71
2023-04-05T02:37:31.353Z,11.80
2023-04-05T02:39:58.228Z,11.79
2023-04-05T02:42:24.993Z,11.69
2023-04-05T02:44:52.583Z,11.73
2023-04-05T02:47:21.796Z,11.52
2023-04-05T02:49:54.540Z,11.67
2023-04-05T02:52:23.762Z,11.55
2023-04-05T02:54:50.646Z,11.53
2023-04-05T02:57:23.680Z,11.54
2023-04-05T03:00:00.755Z,11.47
2023-04-05T03:02:31.466Z,11.42
2023-04-05T03:05:02.376Z,11.34
2023-04-05T03:07:33.010Z,11.29
2023-04-05T03:10:02.623Z,11.25
2023-04-05T03:12:29.688Z,11.22
2023-04-05T03:14:56.462Z,11.18
2023-04-05T03:17:25.959Z,11.17
2023-04-05T03:20:00.946Z,11.18
2023-04-05T03:22:28.138Z,11.18
2023-04-05T03:24:57.396Z,11.09
2023-04-05T03:27:24.605Z,10.91
2023-04-05T03:30:04.922Z,10.92
2023-04-05T03:32:36.294Z,10.97
2023-04-05T03:35:32.771Z,11.01
2023-04-05T03:38:00.623Z,11.07
2023-04-05T03:40:28.349Z,10.95
2023-04-05T03:42:55.073Z,10.95
2023-04-05T03:45:24.528Z,10.85
2023-04-05T03:47:52.337Z,10.79
2023-04-05T03:50:19.200Z,10.85
2023-04-05T03:52:46.465Z,10.86
2023-04-05T03:55:14.155Z,10.75
2023-04-05T03:57:41.955Z,10.63
2023-04-05T04:00:20.921Z,10.77
2023-04-05T04:03:04.206Z,10.78
2023-04-05T04:05:31.388Z,10.78
2023-04-05T04:07:59.084Z,10.88
2023-04-05T04:10:26.125Z,10.83
2023-04-05T04:12:56.483Z,10.81
2023-04-05T04:15:28.177Z,10.79
2023-04-05T04:18:15.487Z,10.87
2023-04-05T04:21:08.518Z,10.78
2023-04-05T04:23:53.484Z,10.85
2023-04-05T04:26:43.102Z,10.86
2023-04-05T04:29:18.953Z,10.81
2023-04-05T04:32:11.623Z,10.73
2023-04-05T04:35:04.974Z,10.65
2023-04-05T04:38:05.981Z,10.56
2023-04-05T04:40:47.204Z,10.68
2023-04-05T04:43:37.351Z,10.66
2023-04-05T04:46:19.301Z,10.71
2023-04-05T04:49:13.368Z,10.72
2023-04-05T04:51:46.183Z,10.65
2023-04-05T04:54:13.247Z,10.61
2023-04-05T04:56:41.440Z,10.53
2023-04-05T04:59:08.216Z,10.33
2023-04-05T05:01:35.337Z,10.16
2023-04-05T05:04:04.118Z,10.09
2023-04-05T05:06:34.606Z,9.93
2023-04-05T05:09:01.572Z,9.98
2023-04-05T05:11:30.171Z,9.87
2023-04-05T05:13:58.165Z,9.82
2023-04-05T05:16:28.077Z,9.80
2023-04-05T05:18:55.590Z,9.87
2023-04-05T05:21:26.691Z,9.98
2023-04-05T05:23:57.193Z,10.15
2023-04-05T05:26:26.484Z,10.20
2023-04-05T05:28:53.289Z,10.27
2023-04-05T05:31:20.984Z,10.30
2023-04-05T05:33:50.016Z,10.31
2023-04-05T05:36:16.794Z,10.32
2023-04-05T05:38:43.652Z,10.42
2023-04-05T05:41:10.824Z,10.41
2023-04-05T05:43:37.618Z,10.49
2023-04-05T05:46:04.385Z,10.45
2023-04-05T05:48:31.218Z,10.56
2023-04-05T05:51:01.666Z,10.62
2023-04-05T05:53:28.610Z,10.71
2023-04-05T05:55:58.427Z,10.71
2023-04-05T05:58:25.278Z,10.73
2023-04-05T06:00:56.934Z,10.86
2023-04-05T06:03:24.254Z,10.95
2023-04-05T06:05:55.439Z,11.02
2023-04-05T06:08:22.718Z,11.23
2023-04-05T06:10:50.701Z,11.30
2023-04-05T06:13:17.468Z,11.39
2023-04-05T06:15:44.319Z,11.47
2023-04-05T06:18:11.116Z,11.53
2023-04-05T06:20:40.714Z,11.63
2023-04-05T06:23:07.865Z,11.58
2023-04-05T06:25:34.991Z,11.51
2023-04-05T06:28:04.091Z,11.45
2023-04-05T06:30:31.833Z,11.59
2023-04-05T06:32:58.842Z,11.46
2023-04-05T06:35:26.759Z,11.24
2023-04-05T06:37:53.574Z,11.06
2023-04-05T06:40:20.719Z,11.20
2023-04-05T06:42:47.526Z,11.13
2023-04-05T06:45:20.035Z,11.14
2023-04-05T06:47:46.883Z,11.26
2023-04-05T06:50:13.916Z,11.41
2023-04-05T06:52:41.108Z,11.44
2023-04-05T06:55:08.393Z,11.51
2023-04-05T06:57:35.281Z,11.71
2023-04-05T07:00:02.038Z,11.85
2023-04-05T07:02:28.842Z,11.96
2023-04-05T07:05:04.501Z,12.12
2023-04-05T07:07:33.972Z,12.49
2023-04-05T07:10:00.760Z,12.58
2023-04-05T07:12:27.504Z,12.78
2023-04-05T07:14:54.286Z,13.01
2023-04-05T07:17:21.796Z,13.12
2023-04-05T07:19:48.768Z,13.27
2023-04-05T07:22:15.738Z,13.40
2023-04-05T07:24:42.586Z,13.53
2023-04-05T07:27:09.394Z,13.55
2023-04-05T07:29:40.663Z,13.71
2023-04-05T07:32:08.019Z,13.88
2023-04-05T07:34:35.635Z,13.96
2023-04-05T07:37:03.307Z,14.12
2023-04-05T07:39:30.116Z,14.14
2023-04-05T07:41:56.960Z,14.13
2023-04-05T07:44:23.762Z,14.11
2023-04-05T07:46:50.742Z,14.22
2023-04-05T07:49:17.551Z,14.21
2023-04-05T07:51:44.370Z,14.18
2023-04-05T07:54:11.605Z,13.98
2023-04-05T07:56:38.467Z,14.01
2023-04-05T07:59:05.465Z,13.98
2023-04-05T08:01:32.196Z,14.25
2023-04-05T08:03:59.221Z,13.98
2023-04-05T08:06:27.503Z,14.09
2023-04-05T08:08:54.475Z,14.17
2023-04-05T08:11:21.651Z,14.22
2023-04-05T08:13:48.585Z,14.01
2023-04-05T08:16:15.574Z,14.12
2023-04-05T08:18:42.396Z,14.18
2023-04-05T08:21:09.106Z,14.14
2023-04-05T08:23:35.849Z,14.11
2023-04-05T08:26:02.698Z,14.23
2023-04-05T08:28:29.570Z,13.98
2023-04-05T08:30:57.699Z,14.01
2023-04-05T08:33:28.614Z,13.90
2023-04-05T08:35:55.432Z,13.72
2023-04-05T08:38:22.348Z,13.88
2023-04-05T08:40:49.750Z,14.11
2023-04-05T08:43:23.615Z,14.27
2023-04-05T08:45:52.133Z,14.52
2023-04-05T08:48:20.006Z,14.73
2023-04-05T08:50:53.572Z,14.96
2023-04-05T08:53:20.986Z,14.95
2023-04-05T08:55:53.726Z,15.43
2023-04-05T08:58:24.464Z,15.43
2023-04-05T09:00:52.241Z,15.66
2023-04-05T09:03:24.157Z,15.89
2023-04-05T09:05:51.740Z,15.84
2023-04-05T09:08:18.943Z,15.93
2023-04-05T09:10:45.798Z,16.04
2023-04-05T09:13:12.618Z,16.15
2023-04-05T09:15:40.492Z,16.24
2023-04-05T09:18:15.491Z,16.34
2023-04-05T09:20:50.672Z,16.44
2023-04-05T09:23:17.412Z,16.56
2023-04-05T09:25:46.674Z,16.79
2023-04-05T09:28:13.504Z,16.83
2023-04-05T09:30:46.271Z,17.02
2023-04-05T09:33:19.915Z,17.19
2023-04-05T09:35:51.383Z,17.26
2023-04-05T09:38:18.692Z,17.41
2023-04-05T09:40:49.705Z,17.51
2023-04-05T09:43:42.743Z,17.60
2023-04-05T09:46:32.393Z,17.76
2023-04-05T09:49:00.232Z,17.91
2023-04-05T09:51:38.175Z,18.08
2023-04-05T09:54:11.379Z,18.11
2023-04-05T09:56:40.938Z,17.91
2023-04-05T09:59:12.208Z,17.96
2023-04-05T10:01:43.417Z,18.03
2023-04-05T10:04:11.017Z,18.14
2023-04-05T10:06:39.712Z,18.17
2023-04-05T10:09:08.446Z,18.30
2023-04-05T10:11:37.040Z,18.40
2023-04-05T10:14:05.922Z,18.42
2023-04-05T10:16:37.202Z,18.50
2023-04-05T10:19:10.403Z,18.56
2023-04-05T10:21:43.834Z,18.55
2023-04-05T10:24:41.154Z,18.67
2023-04-05T10:27:52.497Z,18.70
2023-04-05T10:30:19.375Z,18.80
2023-04-05T10:32:48.963Z,18.60
2023-04-05T10:35:20.405Z,18.63
2023-04-05T10:38:05.192Z,18.51
2023-04-05T10:40:36.458Z,18.46
2023-04-05T10:43:07.235Z,18.29
2023-04-05T10:45:36.841Z,18.26
2023-04-05T10:48:31.950Z,18.21
2023-04-05T10:51:00.239Z,18.17
2023-04-05T10:53:27.506Z,18.12
2023-04-05T10:55:56.054Z,18.16
2023-04-05T10:58:24.514Z,18.25
2023-04-05T11:00:52.858Z,18.25
2023-04-05T11:03:44.529Z,18.34
2023-04-05T11:06:29.503Z,18.35
2023-04-05T11:09:09.208Z,18.35
2023-04-05T11:11:40.593Z,18.37
2023-04-05T11:14:22.490Z,18.42
2023-04-05T11:16:54.549Z,18.42
2023-04-05T11:19:21.514Z,18.36
2023-04-05T11:21:48.395Z,18.25
2023-04-05T11:24:18.926Z,18.34
2023-04-05T11:26:48.745Z,18.27
2023-04-05T11:29:16.136Z,18.23
2023-04-05T11:32:01.833Z,18.19
2023-04-05T11:34:28.582Z,18.26
2023-04-05T11:36:55.562Z,18.20
2023-04-05T11:39:22.309Z,18.33
2023-04-05T11:42:00.937Z,18.31
2023-04-05T11:44:29.265Z,18.35
2023-04-05T11:46:55.974Z,18.35
2023-04-05T11:49:24.498Z,18.52
2023-04-05T11:51:53.133Z,18.46
2023-04-05T11:54:33.157Z,18.45
2023-04-05T11:57:00.869Z,18.52
2023-04-05T11:59:34.295Z,18.41
2023-04-05T12:02:08.185Z,18.34
2023-04-05T12:04:38.388Z,18.34
2023-04-05T12:07:09.616Z,18.15
2023-04-05T12:09:36.474Z,18.30
2023-04-05T12:12:03.406Z,18.17
2023-04-05T12:14:32.300Z,18.22
2023-04-05T12:16:59.030Z,18.15
2023-04-05T12:19:30.413Z,18.18
2023-04-05T12:21:57.420Z,18.07
2023-04-05T12:24:25.023Z,18.09
2023-04-05T12:26:51.915Z,18.06
2023-04-05T12:29:18.623Z,17.80
2023-04-05T12:31:46.490Z,17.97
2023-04-05T12:34:14.730Z,18.08
2023-04-05T12:36:46.389Z,17.93
2023-04-05T12:39:13.204Z,18.06
2023-04-05T12:41:40.167Z,18.08
2023-04-05T12:44:14.875Z,18.09
2023-04-05T12:46:43.848Z,18.00
2023-04-05T12:49:11.803Z,18.11
2023-04-05T12:51:46.262Z,18.27
2023-04-05T12:54:14.666Z,18.16
2023-04-05T12:56:42.137Z,17.90
2023-04-05T12:59:08.988Z,17.90
2023-04-05T13:01:35.916Z,18.10
2023-04-05T13:04:15.237Z,18.23
2023-04-05T13:06:44.562Z,18.23
2023-04-05T13:09:11.314Z,18.24
2023-04-05T13:11:38.173Z,18.18
2023-04-05T13:14:04.959Z,18.19
2023-04-05T13:16:31.847Z,18.34
2023-04-05T13:18:58.601Z,18.27
2023-04-05T13:21:25.947Z,18.34
2023-04-05T13:23:52.721Z,18.34
2023-04-05T13:26:19.466Z,18.44
2023-04-05T13:28:46.265Z,18.46
2023-04-05T13:31:15.122Z,18.26
2023-04-05T13:33:42.629Z,18.35
2023-04-05T13:36:11.077Z,18.31
2023-04-05T13:38:37.894Z,18.33
2023-04-05T13:41:05.059Z,18.29
2023-04-05T13:43:31.883Z,18.23
2023-04-05T13:45:58.639Z,18.25
2023-04-05T13:48:25.390Z,18.31
2023-04-05T13:50:52.202Z,18.30
2023-04-05T13:53:18.982Z,18.23
2023-04-05T13:55:45.713Z,18.34
2023-04-05T13:58:14.394Z,18.26
2023-04-05T14:00:41.836Z,18.40
2023-04-05T14:03:09.074Z,18.40
2023-04-05T14:05:36.173Z,18.48
2023-04-05T14:08:03.134Z,18.57
2023-04-05T14:10:31.942Z,18.45
2023-04-05T14:12:58.706Z,18.57
2023-04-05T14:15:25.719Z,18.54
2023-04-05T14:17:52.604Z,18.59
2023-04-05T14:20:19.384Z,18.51
2023-04-05T14:22:46.216Z,18.47
2023-04-05T14:25:13.033Z,18.50
2023-04-05T14:27:42.490Z,18.50
2023-04-05T14:30:11.190Z,18.44
2023-04-05T14:32:38.311Z,18.35
2023-04-05T14:35:05.821Z,18.38
2023-04-05T14:37:32.566Z,18.50
2023-04-05T14:39:59.327Z,18.47
2023-04-05T14:42:37.337Z,18.43
2023-04-05T14:45:12.387Z,18.69
2023-04-05T14:47:39.434Z,18.22
2023-04-05T14:50:07.859Z,18.55
2023-04-05T14:52:34.571Z,18.67
2023-04-05T14:55:01.296Z,18.79
2023-04-05T14:57:28.082Z,18.75
2023-04-05T14:59:54.828Z,18.80
2023-04-05T15:02:21.763Z,18.76
2023-04-05T15:04:48.586Z,18.88
2023-04-05T15:07:15.354Z,18.81
2023-04-05T15:09:43.099Z,18.91
2023-04-05T15:12:09.966Z,18.96
2023-04-05T15:14:36.827Z,18.79
2023-04-05T15:17:03.656Z,18.99
2023-04-05T15:19:30.667Z,19.01
2023-04-05T15:21:57.586Z,18.86
2023-04-05T15:24:24.400Z,18.83
2023-04-05T15:26:51.121Z,18.65
2023-04-05T15:29:17.870Z,18.57
2023-04-05T15:31:44.782Z,18.38
2023-04-05T15:34:11.658Z,18.59
2023-04-05T15:36:38.393Z,18.75
2023-04-05T15:39:05.372Z,18.48
2023-04-05T15:41:33.497Z,18.63
2023-04-05T15:44:00.930Z,18.77
2023-04-05T15:46:29.284Z,18.84
2023-04-05T15:48:56.255Z,18.65
2023-04-05T15:51:23.177Z,18.65
2023-04-05T15:53:50.264Z,18.82
2023-04-05T15:56:18.125Z,18.74
2023-04-05T15:58:45.335Z,18.89
2023-04-05T16:01:12.168Z,18.86
2023-04-05T16:03:39.159Z,18.87
2023-04-05T16:06:06.378Z,18.88
2023-04-05T16:08:33.230Z,18.83
2023-04-05T16:11:00.130Z,18.79
2023-04-05T16:13:27.806Z,18.72
2023-04-05T16:15:54.657Z,18.82
2023-04-05T16:18:21.484Z,18.89
2023-04-05T16:20:48.582Z,18.88
2023-04-05T16:23:15.633Z,18.83
2023-04-05T16:25:42.534Z,18.79
2023-04-05T16:28:09.563Z,18.83
2023-04-05T16:30:36.927Z,18.80
2023-04-05T16:33:03.834Z,18.86
2023-04-05T16:35:31.382Z,18.79
2023-04-05T16:38:02.758Z,18.85
2023-04-05T16:40:32.743Z,18.79
2023-04-05T16:43:00.101Z,18.83
2023-04-05T16:45:31.975Z,19.00
2023-04-05T16:47:58.755Z,18.97
2023-04-05T16:50:25.665Z,18.79
2023-04-05T16:52:52.420Z,18.89
2023-04-05T16:55:19.139Z,18.91
2023-04-05T16:57:46.155Z,18.91
2023-04-05T17:00:13.747Z,18.96
2023-04-05T17:02:40.573Z,18.93
2023-04-05T17:05:07.783Z,19.00
2023-04-05T17:07:34.568Z,18.98
2023-04-05T17:10:02.998Z,18.84
2023-04-05T17:12:30.039Z,18.76
2023-04-05T17:14:56.766Z,18.84
2023-04-05T17:17:23.533Z,18.71
2023-04-05T17:19:50.696Z,18.55
2023-04-05T17:22:17.515Z,18.43
2023-04-05T17:24:46.020Z,18.36
2023-04-05T17:27:12.798Z,18.19
2023-04-05T17:29:39.884Z,18.14
2023-04-05T17:32:07.012Z,18.00
2023-04-05T17:34:33.775Z,18.11
2023-04-05T17:37:00.775Z,18.14
2023-04-05T17:39:27.562Z,18.09
2023-04-05T17:41:56.588Z,18.08
2023-04-05T17:44:23.457Z,17.95
2023-04-05T17:47:01.296Z,17.78
2023-04-05T17:49:36.497Z,17.63
2023-04-05T17:52:04.886Z,17.56
2023-04-05T17:54:36.871Z,17.47
2023-04-05T17:57:06.868Z,17.34
2023-04-05T17:59:33.670Z,17.24
2023-04-05T18:02:00.715Z,17.15
2023-04-05T18:04:27.547Z,17.06
2023-04-05T18:06:54.314Z,17.05
2023-04-05T18:09:21.062Z,16.85
2023-04-05T18:11:47.851Z,16.91
2023-04-05T18:14:14.738Z,16.89
2023-04-05T18:16:41.988Z,16.85
2023-04-05T18:19:08.795Z,16.85
2023-04-05T18:21:35.612Z,16.82
2023-04-05T18:24:08.510Z,16.79
2023-04-05T18:26:35.316Z,16.77
2023-04-05T18:29:02.078Z,16.72
2023-04-05T18:31:29.499Z,16.71
2023-04-05T18:33:56.326Z,16.69
2023-04-05T18:36:26.436Z,16.67
2023-04-05T18:39:03.249Z,16.66
2023-04-05T18:41:30.102Z,16.62
2023-04-05T18:43:59.158Z,16.62
2023-04-05T18:46:26.320Z,16.61
2023-04-05T18:48:56.392Z,16.61
2023-04-05T18:51:27.276Z,16.59
2023-04-05T18:53:54.131Z,16.56
2023-04-05T18:56:21.377Z,16.55
2023-04-05T18:58:48.377Z,16.49
2023-04-05T19:01:16.080Z,16.52
2023-04-05T19:03:47.172Z,16.52
2023-04-05T19:06:14.738Z,16.51
2023-04-05T19:08:41.780Z,16.46
2023-04-05T19:11:13.105Z,16.48
2023-04-05T19:13:40.642Z,16.44
2023-04-05T19:16:07.577Z,16.38
2023-04-05T19:18:34.410Z,16.36
2023-04-05T19:21:01.384Z,16.36
2023-04-05T19:23:28.985Z,16.22
2023-04-05T19:25:57.057Z,16.26
2023-04-05T19:28:24.550Z,16.22
2023-04-05T19:30:51.512Z,16.25
2023-04-05T19:33:20.972Z,16.27
2023-04-05T19:35:48.480Z,16.28
2023-04-05T19:38:15.474Z,16.28
2023-04-05T19:40:42.733Z,16.31
2023-04-05T19:43:10.180Z,16.26
2023-04-05T19:45:37.240Z,16.23
2023-04-05T19:48:27.866Z,16.27
2023-04-05T19:50:56.413Z,16.26
2023-04-05T19:53:32.322Z,16.23
2023-04-05T19:55:59.082Z,16.16
2023-04-05T19:58:29.341Z,16.21
2023-04-05T20:00:56.416Z,16.21
2023-04-05T20:03:40.851Z,16.24
2023-04-05T20:06:11.355Z,16.25
2023-04-05T20:08:43.697Z,16.27
2023-04-05T20:11:13.675Z,16.28
2023-04-05T20:13:52.352Z,16.28
2023-04-05T20:16:30.380Z,16.27
2023-04-05T20:19:00.786Z,16.24
2023-04-05T20:21:27.614Z,16.25
2023-04-05T20:23:55.113Z,16.24
2023-04-05T20:26:30.745Z,16.23
2023-04-05T20:29:02.750Z,16.21
2023-04-05T20:31:32.932Z,16.20
2023-04-05T20:34:09.960Z,16.20
2023-04-05T20:36:38.829Z,16.19
2023-04-05T20:39:07.234Z,16.15
2023-04-05T20:41:34.412Z,16.15
2023-04-05T20:44:01.278Z,16.15
2023-04-05T20:46:28.379Z,16.15
2023-04-05T20:48:58.153Z,16.15
2023-04-05T20:51:25.649Z,16.15
2023-04-05T20:53:52.625Z,16.14
2023-04-05T20:56:19.564Z,16.16
2023-04-05T20:58:46.321Z,16.14
2023-04-05T21:01:13.189Z,16.15
2023-04-05T21:03:41.621Z,16.17
2023-04-05T21:06:10.112Z,16.17
2023-04-05T21:08:38.407Z,16.15
2023-04-05T21:11:06.097Z,16.15
2023-04-05T21:13:33.426Z,16.15
2023-04-05T21:16:00.320Z,16.18
2023-04-05T21:18:27.207Z,16.17
2023-04-05T21:20:54.514Z,16.16
2023-04-05T21:23:29.251Z,16.13
2023-04-05T21:25:56.901Z,16.12
2023-04-05T21:28:24.882Z,16.10
2023-04-05T21:30:52.115Z,16.07
2023-04-05T21:33:19.590Z,16.07
2023-04-05T21:35:46.590Z,16.06
2023-04-05T21:38:15.624Z,16.05
2023-04-05T21:40:44.831Z,16.03
2023-04-05T21:43:14.580Z,16.02
2023-04-05T21:45:41.412Z,16.01
2023-04-05T21:48:08.230Z,15.99
2023-04-05T21:50:35.083Z,15.96
2023-04-05T21:53:01.828Z,15.93
2023-04-05T21:55:28.536Z,15.90
2023-04-05T21:57:55.486Z,15.86
2023-04-05T22:00:25.141Z,15.81
2023-04-05T22:02:51.988Z,15.65
2023-04-05T22:05:34.038Z,15.70
2023-04-05T22:08:04.140Z,15.63
2023-04-05T22:10:31.018Z,15.59
2023-04-05T22:12:58.027Z,15.52
2023-04-05T22:15:24.825Z,15.47
2023-04-05T22:17:51.908Z,15.46
2023-04-05T22:20:18.636Z,15.42
2023-04-05T22:22:45.380Z,15.27
2023-04-05T22:25:12.210Z,15.28
2023-04-05T22:27:39.514Z,15.26
2023-04-05T22:30:08.175Z,15.24
2023-04-05T22:32:35.788Z,15.21
2023-04-05T22:35:04.496Z,15.07
2023-04-05T22:37:35.699Z,14.97
2023-04-05T22:40:04.012Z,14.84
2023-04-05T22:42:30.815Z,14.84
2023-04-05T22:44:57.606Z,14.84
2023-04-05T22:47:24.667Z,14.86
2023-04-05T22:49:51.960Z,14.84
2023-04-05T22:52:18.820Z,14.72
2023-04-05T22:54:45.556Z,14.74
2023-04-05T22:57:12.872Z,14.76
2023-04-05T22:59:39.669Z,14.72
2023-04-05T23:02:06.611Z,14.72
2023-04-05T23:04:33.454Z,14.60
2023-04-05T23:07:00.386Z,14.52
2023-04-05T23:09:27.684Z,14.58
2023-04-05T23:11:54.485Z,14.57
2023-04-05T23:14:21.802Z,14.51
2023-04-05T23:16:48.557Z,14.52
2023-04-05T23:19:15.403Z,14.47
2023-04-05T23:21:42.445Z,14.45
2023-04-05T23:24:10.825Z,14.29
2023-04-05T23:26:37.618Z,14.28
2023-04-05T23:29:04.394Z,14.22
2023-04-05T23:31:31.147Z,14.17
2023-04-05T23:33:58.095Z,14.18
2023-04-05T23:36:24.974Z,14.18
2023-04-05T23:38:51.701Z,14.02
2023-04-05T23:41:18.444Z,14.00
2023-04-05T23:43:46.054Z,14.06
2023-04-05T23:48:39.721Z,14.01
2023-04-05T23:51:06.489Z,13.97
2023-04-05T23:53:33.276Z,13.93
2023-04-05T23:56:00.050Z,14.00
2023-04-05T23:58:26.913Z,13.94
